createdAt,value
2022-07-30T00:01:07.897Z,27.69
2022-07-30T00:02:15.787Z,27.74
2022-07-30T00:03:23.386Z,27.80
2022-07-30T00:04:31.056Z,27.76
2022-07-30T00:05:39.460Z,27.87
2022-07-30T00:06:46.629Z,27.84
2022-07-30T00:07:53.066Z,27.98
2022-07-30T00:09:00.251Z,28.14
2022-07-30T00:10:08.701Z,28.22
2022-07-30T00:11:16.878Z,28.16
2022-07-30T00:12:25.018Z,27.97
2022-07-30T00:13:32.908Z,27.95
2022-07-30T00:14:39.901Z,27.84
2022-07-30T00:15:47.094Z,28.06
2022-07-30T00:16:54.963Z,28.32
2022-07-30T00:18:02.427Z,28.23
2022-07-30T00:19:08.650Z,28.58
2022-07-30T00:20:15.744Z,28.68
2022-07-30T00:21:36.403Z,28.78
2022-07-30T00:22:47.722Z,28.82
2022-07-30T00:24:01.980Z,28.80
2022-07-30T00:25:11.306Z,28.91
2022-07-30T00:26:19.070Z,29.04
2022-07-30T00:27:29.093Z,28.93
2022-07-30T00:28:36.410Z,28.95
2022-07-30T00:29:44.897Z,29.17
2022-07-30T00:30:54.938Z,29.32
2022-07-30T00:32:03.383Z,29.33
2022-07-30T00:33:10.085Z,29.35
2022-07-30T00:34:18.264Z,29.40
2022-07-30T00:35:27.531Z,29.36
2022-07-30T00:36:34.933Z,29.17
2022-07-30T00:37:45.721Z,29.24
2022-07-30T00:38:52.450Z,29.58
2022-07-30T00:39:58.718Z,29.69
2022-07-30T00:41:05.817Z,30.14
2022-07-30T00:42:13.128Z,30.25
2022-07-30T00:43:20.268Z,30.45
2022-07-30T00:44:28.476Z,30.38
2022-07-30T00:45:36.419Z,30.40
2022-07-30T00:46:42.961Z,30.44
2022-07-30T00:47:48.712Z,30.61
2022-07-30T00:48:56.447Z,30.73
2022-07-30T00:50:04.955Z,30.44
2022-07-30T00:51:12.235Z,30.16
2022-07-30T00:52:18.257Z,30.35
2022-07-30T00:53:24.537Z,30.38
2022-07-30T00:54:30.311Z,31.20
2022-07-30T00:55:38.533Z,31.09
2022-07-30T00:56:45.872Z,30.95
2022-07-30T00:57:53.288Z,30.58
2022-07-30T00:59:01.545Z,30.96
2022-07-30T01:00:10.094Z,31.26
2022-07-30T01:01:18.653Z,31.27
2022-07-30T01:02:25.037Z,31.26
2022-07-30T01:03:32.943Z,31.16
2022-07-30T01:04:41.301Z,31.10
2022-07-30T01:05:47.064Z,31.10
2022-07-30T01:06:55.945Z,30.87
2022-07-30T01:08:03.253Z,31.37
2022-07-30T01:09:10.791Z,31.44
2022-07-30T01:10:18.591Z,31.49
2022-07-30T01:11:30.985Z,31.61
2022-07-30T01:12:43.999Z,31.30
2022-07-30T01:13:51.235Z,31.45
2022-07-30T01:14:59.435Z,31.58
2022-07-30T01:16:07.811Z,31.38
2022-07-30T01:17:15.221Z,31.61
2022-07-30T01:18:23.847Z,31.40
2022-07-30T01:19:54.490Z,31.50
2022-07-30T01:21:08.867Z,31.64
2022-07-30T01:22:55.061Z,31.51
2022-07-30T01:24:04.308Z,31.35
2022-07-30T01:25:34.710Z,31.56
2022-07-30T01:26:40.994Z,31.77
2022-07-30T01:27:53.013Z,31.86
2022-07-30T01:28:59.185Z,31.85
2022-07-30T01:30:07.050Z,32.16
2022-07-30T01:31:17.357Z,32.62
2022-07-30T01:32:25.207Z,32.76
2022-07-30T01:33:35.032Z,33.20
2022-07-30T01:34:41.707Z,33.30
2022-07-30T01:35:50.976Z,33.25
2022-07-30T01:36:59.495Z,33.01
2022-07-30T01:38:07.047Z,33.34
2022-07-30T01:39:17.511Z,33.18
2022-07-30T01:40:25.220Z,33.02
2022-07-30T01:41:34.188Z,32.93
2022-07-30T01:42:40.222Z,33.09
2022-07-30T01:43:46.613Z,33.19
2022-07-30T01:44:52.275Z,33.17
2022-07-30T01:45:59.180Z,33.33
2022-07-30T01:47:05.842Z,33.35
2022-07-30T01:48:12.567Z,33.28
2022-07-30T01:49:20.342Z,33.04
2022-07-30T01:50:27.445Z,33.22
2022-07-30T01:51:37.641Z,33.34
2022-07-30T01:52:44.814Z,33.85
2022-07-30T01:53:53.365Z,33.96
2022-07-30T01:54:59.697Z,34.29
2022-07-30T01:56:05.958Z,34.71
2022-07-30T01:57:19.046Z,34.68
2022-07-30T01:58:28.039Z,34.79
2022-07-30T01:59:42.084Z,35.41
2022-07-30T02:00:48.055Z,35.49
2022-07-30T02:01:54.253Z,35.47
2022-07-30T02:03:01.377Z,35.48
2022-07-30T02:04:08.061Z,35.63
2022-07-30T02:05:18.781Z,35.97
2022-07-30T02:06:39.404Z,36.39
2022-07-30T02:08:14.526Z,36.79
2022-07-30T02:09:25.196Z,37.39
2022-07-30T02:10:34.566Z,38.06
2022-07-30T02:12:07.597Z,38.07
2022-07-30T02:13:15.941Z,38.33
2022-07-30T02:14:47.453Z,38.73
2022-07-30T02:16:23.600Z,38.67
2022-07-30T02:18:17.105Z,39.14
2022-07-30T02:19:24.527Z,39.41
2022-07-30T02:20:39.802Z,39.57
2022-07-30T02:21:59.849Z,39.63
2022-07-30T02:23:12.920Z,39.83
2022-07-30T02:24:25.362Z,39.91
2022-07-30T02:25:33.723Z,40.56
2022-07-30T02:26:41.553Z,40.99
2022-07-30T02:27:54.473Z,41.58
2022-07-30T02:29:08.381Z,41.47
2022-07-30T02:30:21.039Z,41.42
2022-07-30T02:31:31.577Z,41.51
2022-07-30T02:32:40.121Z,41.66
2022-07-30T02:33:48.524Z,42.55
2022-07-30T02:34:58.639Z,42.41
2022-07-30T02:36:11.118Z,42.11
2022-07-30T02:37:18.973Z,42.45
2022-07-30T02:38:46.265Z,42.88
2022-07-30T02:39:52.732Z,43.13
2022-07-30T02:41:01.290Z,43.42
2022-07-30T02:42:08.596Z,43.66
2022-07-30T02:43:17.738Z,43.84
2022-07-30T02:44:24.944Z,43.91
2022-07-30T02:45:31.577Z,43.93
2022-07-30T02:46:38.814Z,44.16
2022-07-30T02:48:34.428Z,44.16
2022-07-30T02:49:44.862Z,44.21
2022-07-30T02:50:53.201Z,44.62
2022-07-30T02:52:02.191Z,44.44
2022-07-30T02:53:10.939Z,44.65
2022-07-30T02:54:20.249Z,45.06
2022-07-30T02:55:31.477Z,45.28
2022-07-30T02:56:39.465Z,45.35
2022-07-30T02:57:46.061Z,45.43
2022-07-30T02:58:52.591Z,45.72
2022-07-30T03:00:00.564Z,45.59
2022-07-30T03:01:10.041Z,45.86
2022-07-30T03:02:18.875Z,46.41
2022-07-30T03:03:38.730Z,46.86
2022-07-30T03:04:45.051Z,46.91
2022-07-30T03:05:57.765Z,46.60
2022-07-30T03:07:08.380Z,46.64
2022-07-30T03:08:19.927Z,46.48
2022-07-30T03:09:27.332Z,46.79
2022-07-30T03:10:55.111Z,47.10
2022-07-30T03:12:03.853Z,47.25
2022-07-30T03:13:09.743Z,47.03
2022-07-30T03:14:16.126Z,47.25
2022-07-30T03:15:25.382Z,47.45
2022-07-30T03:16:31.365Z,47.47
2022-07-30T03:17:41.835Z,47.43
2022-07-30T03:18:47.652Z,47.68
2022-07-30T03:19:53.579Z,47.76
2022-07-30T03:21:00.446Z,47.76
2022-07-30T03:22:09.827Z,47.84
2022-07-30T03:23:20.427Z,47.94
2022-07-30T03:24:26.721Z,48.05
2022-07-30T03:25:32.785Z,47.68
2022-07-30T03:26:38.990Z,47.69
2022-07-30T03:27:47.145Z,47.87
2022-07-30T03:28:53.269Z,47.92
2022-07-30T03:30:02.940Z,48.18
2022-07-30T03:31:11.771Z,48.16
2022-07-30T03:32:18.527Z,48.18
2022-07-30T03:33:38.291Z,48.34
2022-07-30T03:34:47.151Z,48.52
2022-07-30T03:35:56.012Z,48.77
2022-07-30T03:37:03.211Z,48.37
2022-07-30T03:38:16.999Z,48.30
2022-07-30T03:39:24.317Z,48.48
2022-07-30T03:40:32.714Z,48.52
2022-07-30T03:41:38.906Z,48.49
2022-07-30T03:42:46.159Z,48.95
2022-07-30T03:43:56.108Z,49.13
2022-07-30T03:45:02.957Z,48.98
2022-07-30T03:46:09.140Z,48.98
2022-07-30T03:47:17.827Z,48.85
2022-07-30T03:48:27.578Z,48.85
2022-07-30T03:49:34.492Z,48.99
2022-07-30T03:50:43.881Z,48.78
2022-07-30T03:51:50.906Z,48.57
2022-07-30T03:52:56.690Z,48.75
2022-07-30T03:54:13.363Z,48.97
2022-07-30T03:55:21.073Z,49.04
2022-07-30T03:56:27.324Z,49.06
2022-07-30T03:58:01.688Z,48.87
2022-07-30T03:59:08.763Z,48.73
2022-07-30T04:00:18.283Z,49.02
2022-07-30T04:01:30.659Z,48.81
2022-07-30T04:02:47.211Z,48.73
2022-07-30T04:04:10.424Z,48.47
2022-07-30T04:05:18.054Z,48.43
2022-07-30T04:06:27.098Z,48.28
2022-07-30T04:07:33.207Z,48.32
2022-07-30T04:08:39.575Z,48.33
2022-07-30T04:09:48.514Z,48.18
2022-07-30T04:11:21.582Z,48.19
2022-07-30T04:12:51.303Z,48.19
2022-07-30T04:13:57.551Z,48.36
2022-07-30T04:16:04.618Z,48.48
2022-07-30T04:16:58.388Z,48.37
2022-07-30T04:18:05.012Z,48.17
2022-07-30T04:19:13.638Z,48.16
2022-07-30T04:20:27.096Z,47.89
2022-07-30T04:21:33.505Z,47.79
2022-07-30T04:22:41.852Z,47.64
2022-07-30T04:24:02.851Z,47.59
2022-07-30T04:25:11.940Z,47.54
2022-07-30T04:26:36.679Z,47.39
2022-07-30T04:28:02.994Z,47.47
2022-07-30T04:29:16.673Z,47.45
2022-07-30T04:30:28.014Z,47.21
2022-07-30T04:31:40.299Z,47.21
2022-07-30T04:33:07.464Z,47.15
2022-07-30T04:34:50.953Z,47.19
2022-07-30T04:36:08.989Z,47.16
2022-07-30T04:37:18.662Z,47.18
2022-07-30T04:38:27.561Z,47.13
2022-07-30T04:39:36.342Z,47.17
2022-07-30T04:40:44.588Z,47.06
2022-07-30T04:41:51.791Z,46.97
2022-07-30T04:43:09.030Z,47.01
2022-07-30T04:44:16.667Z,46.98
2022-07-30T04:45:30.555Z,47.04
2022-07-30T04:46:41.084Z,47.13
2022-07-30T04:47:49.768Z,47.28
2022-07-30T04:49:09.582Z,47.66
2022-07-30T04:50:20.431Z,47.71
2022-07-30T04:51:39.906Z,47.79
2022-07-30T04:52:46.804Z,48.07
2022-07-30T04:53:59.555Z,48.34
2022-07-30T04:55:06.697Z,48.36
2022-07-30T04:56:15.669Z,48.39
2022-07-30T04:57:23.973Z,48.39
2022-07-30T04:58:30.573Z,48.61
2022-07-30T04:59:38.012Z,48.66
2022-07-30T05:00:45.088Z,48.61
2022-07-30T05:02:00.747Z,48.66
2022-07-30T05:03:08.565Z,48.65
2022-07-30T05:04:16.378Z,48.87
2022-07-30T05:05:24.432Z,48.82
2022-07-30T05:06:33.433Z,48.94
2022-07-30T05:07:42.824Z,48.97
2022-07-30T05:08:49.969Z,48.88
2022-07-30T05:10:00.846Z,49.06
2022-07-30T05:11:08.683Z,49.24
2022-07-30T05:12:15.716Z,49.39
2022-07-30T05:13:22.417Z,49.44
2022-07-30T05:14:34.383Z,49.53
2022-07-30T05:15:42.200Z,49.55
2022-07-30T05:16:50.346Z,49.72
2022-07-30T05:17:56.889Z,49.65
2022-07-30T05:19:07.940Z,49.72
2022-07-30T05:20:16.000Z,49.75
2022-07-30T05:21:45.792Z,49.80
2022-07-30T05:22:52.001Z,49.86
2022-07-30T05:24:00.605Z,50.02
2022-07-30T05:25:16.200Z,49.95
2022-07-30T05:26:27.775Z,50.23
2022-07-30T05:27:35.328Z,50.49
2022-07-30T05:28:52.079Z,50.56
2022-07-30T05:30:07.397Z,50.54
2022-07-30T05:31:20.933Z,50.71
2022-07-30T05:32:36.243Z,50.70
2022-07-30T05:33:43.847Z,50.81
2022-07-30T05:34:53.428Z,50.91
2022-07-30T05:36:02.539Z,51.10
2022-07-30T05:37:12.449Z,50.92
2022-07-30T05:38:19.657Z,50.86
2022-07-30T05:40:02.162Z,50.89
2022-07-30T05:41:33.303Z,50.95
2022-07-30T05:42:57.455Z,50.87
2022-07-30T05:44:07.292Z,50.82
2022-07-30T05:45:15.117Z,50.80
2022-07-30T05:46:23.637Z,50.73
2022-07-30T05:47:30.618Z,50.76
2022-07-30T05:48:39.207Z,50.71
2022-07-30T05:49:47.346Z,50.63
2022-07-30T05:50:54.159Z,50.63
2022-07-30T05:52:03.097Z,50.53
2022-07-30T05:53:13.136Z,50.83
2022-07-30T05:54:40.430Z,50.80
2022-07-30T05:56:01.941Z,50.93
2022-07-30T05:57:36.342Z,50.99
2022-07-30T05:58:44.548Z,51.02
2022-07-30T05:59:51.926Z,51.00
2022-07-30T06:01:04.570Z,50.71
2022-07-30T06:02:16.525Z,50.79
2022-07-30T06:03:36.547Z,51.36
2022-07-30T06:05:02.233Z,51.30
2022-07-30T06:06:09.589Z,51.16
2022-07-30T06:07:15.838Z,51.11
2022-07-30T06:08:22.185Z,51.11
2022-07-30T06:09:37.034Z,50.98
2022-07-30T06:10:46.108Z,50.85
2022-07-30T06:11:53.911Z,51.01
2022-07-30T06:13:04.981Z,51.00
2022-07-30T06:14:12.908Z,50.94
2022-07-30T06:15:26.348Z,50.99
2022-07-30T06:16:34.070Z,51.01
2022-07-30T06:17:52.029Z,51.11
2022-07-30T06:19:22.991Z,51.31
2022-07-30T06:20:29.181Z,51.22
2022-07-30T06:22:01.501Z,51.41
2022-07-30T06:23:16.701Z,51.77
2022-07-30T06:24:39.888Z,51.66
2022-07-30T06:25:52.058Z,51.49
2022-07-30T06:26:58.118Z,51.70
2022-07-30T06:28:27.371Z,51.99
2022-07-30T06:29:34.270Z,52.15
2022-07-30T06:30:40.580Z,52.06
2022-07-30T06:31:47.945Z,52.02
2022-07-30T06:32:53.958Z,52.03
2022-07-30T06:34:00.806Z,52.13
2022-07-30T06:35:11.629Z,52.33
2022-07-30T06:36:17.732Z,52.12
2022-07-30T06:38:06.414Z,52.19
2022-07-30T06:39:14.701Z,52.52
2022-07-30T06:41:02.912Z,52.66
2022-07-30T06:42:32.050Z,53.23
2022-07-30T06:43:59.503Z,53.26
2022-07-30T06:45:29.255Z,53.03
2022-07-30T06:47:07.861Z,53.24
2022-07-30T06:48:16.893Z,53.20
2022-07-30T06:49:23.556Z,53.45
2022-07-30T06:50:30.129Z,53.84
2022-07-30T06:51:37.094Z,53.48
2022-07-30T06:52:43.408Z,53.45
2022-07-30T06:53:49.679Z,53.82
2022-07-30T06:54:55.521Z,53.70
2022-07-30T06:56:09.781Z,53.99
2022-07-30T06:57:28.009Z,53.96
2022-07-30T06:58:40.775Z,54.32
2022-07-30T07:00:07.495Z,54.35
2022-07-30T07:01:18.859Z,54.55
2022-07-30T07:02:25.084Z,54.48
2022-07-30T07:03:52.509Z,54.64
2022-07-30T07:04:58.418Z,54.63
2022-07-30T07:06:05.910Z,54.68
2022-07-30T07:07:13.511Z,55.22
2022-07-30T07:08:20.920Z,55.02
2022-07-30T07:09:33.767Z,55.25
2022-07-30T07:11:04.622Z,55.45
2022-07-30T07:12:20.401Z,55.41
2022-07-30T07:13:27.975Z,55.19
2022-07-30T07:14:34.492Z,55.39
2022-07-30T07:15:42.093Z,55.34
2022-07-30T07:16:52.913Z,55.63
2022-07-30T07:18:19.695Z,55.66
2022-07-30T07:19:59.569Z,55.78
2022-07-30T07:21:09.283Z,55.69
2022-07-30T07:22:17.759Z,56.04
2022-07-30T07:23:24.962Z,56.19
2022-07-30T07:24:34.039Z,56.59
2022-07-30T07:25:53.680Z,56.66
2022-07-30T07:27:02.916Z,56.60
2022-07-30T07:28:11.700Z,56.36
2022-07-30T07:29:26.375Z,56.29
2022-07-30T07:30:33.763Z,56.78
2022-07-30T07:32:06.113Z,56.67
2022-07-30T07:33:11.961Z,56.71
2022-07-30T07:34:19.939Z,56.68
2022-07-30T07:35:27.840Z,56.99
2022-07-30T07:36:36.571Z,57.24
2022-07-30T07:37:45.683Z,57.21
2022-07-30T07:38:58.576Z,57.17
2022-07-30T07:40:07.647Z,57.48
2022-07-30T07:41:18.833Z,57.56
2022-07-30T07:42:26.679Z,57.59
2022-07-30T07:43:34.590Z,57.80
2022-07-30T07:44:44.319Z,57.83
2022-07-30T07:45:51.394Z,57.79
2022-07-30T07:46:58.549Z,57.56
2022-07-30T07:48:10.314Z,57.65
2022-07-30T07:49:31.288Z,58.43
2022-07-30T07:50:41.409Z,58.76
2022-07-30T07:51:53.974Z,58.89
2022-07-30T07:53:02.385Z,59.19
2022-07-30T07:54:21.182Z,59.53
2022-07-30T07:55:32.825Z,59.94
2022-07-30T07:56:42.448Z,60.25
2022-07-30T07:57:51.366Z,60.40
2022-07-30T07:59:01.483Z,60.49
2022-07-30T08:00:09.855Z,60.97
2022-07-30T08:01:26.852Z,61.35
2022-07-30T08:03:09.341Z,61.39
2022-07-30T08:04:16.521Z,61.58
2022-07-30T08:06:01.765Z,61.45
2022-07-30T08:07:31.698Z,61.30
2022-07-30T08:08:57.444Z,61.59
2022-07-30T08:10:36.429Z,61.05
2022-07-30T08:12:02.851Z,60.78
2022-07-30T08:13:48.551Z,60.70
2022-07-30T08:15:22.639Z,61.26
2022-07-30T08:16:49.005Z,61.52
2022-07-30T08:18:23.873Z,61.57
2022-07-30T08:19:42.590Z,61.38
2022-07-30T08:20:58.891Z,61.50
2022-07-30T08:22:09.148Z,61.89
2022-07-30T08:23:20.808Z,61.84
2022-07-30T08:24:28.937Z,61.63
2022-07-30T08:25:36.588Z,61.30
2022-07-30T08:26:46.435Z,61.17
2022-07-30T08:27:53.194Z,60.97
2022-07-30T08:29:03.013Z,60.79
2022-07-30T08:30:10.954Z,60.72
2022-07-30T08:31:21.807Z,60.74
2022-07-30T08:32:28.259Z,60.68
2022-07-30T08:33:36.887Z,60.71
2022-07-30T08:34:44.387Z,61.07
2022-07-30T08:35:55.568Z,61.73
2022-07-30T08:37:09.757Z,61.98
2022-07-30T08:38:16.037Z,62.32
2022-07-30T08:39:24.379Z,62.55
2022-07-30T08:40:31.036Z,62.63
2022-07-30T08:41:43.098Z,62.79
2022-07-30T08:42:51.107Z,62.78
2022-07-30T08:43:57.343Z,62.83
2022-07-30T08:45:03.306Z,62.85
2022-07-30T08:46:10.972Z,62.90
2022-07-30T08:47:38.367Z,63.01
2022-07-30T08:48:53.483Z,63.17
2022-07-30T08:50:04.939Z,63.21
2022-07-30T08:51:18.424Z,63.35
2022-07-30T08:52:44.357Z,63.65
2022-07-30T08:53:50.536Z,63.86
2022-07-30T08:54:57.462Z,64.00
2022-07-30T08:56:04.564Z,63.98
2022-07-30T08:57:13.631Z,63.88
2022-07-30T08:58:36.776Z,63.75
2022-07-30T09:00:00.826Z,63.77
2022-07-30T09:01:10.754Z,63.62
2022-07-30T09:02:16.663Z,63.57
2022-07-30T09:03:45.041Z,63.57
2022-07-30T09:04:52.919Z,63.91
2022-07-30T09:06:03.141Z,63.90
2022-07-30T09:07:09.261Z,63.96
2022-07-30T09:08:18.794Z,63.72
2022-07-30T09:09:27.458Z,63.49
2022-07-30T09:10:39.806Z,63.35
2022-07-30T09:11:59.248Z,63.19
2022-07-30T09:13:34.939Z,63.04
2022-07-30T09:14:41.131Z,63.28
2022-07-30T09:15:48.678Z,63.21
2022-07-30T09:17:04.428Z,63.13
2022-07-30T09:18:10.549Z,63.12
2022-07-30T09:19:23.987Z,62.87
2022-07-30T09:20:36.104Z,63.00
2022-07-30T09:21:59.463Z,63.14
2022-07-30T09:23:39.850Z,63.26
2022-07-30T09:25:07.369Z,63.37
2022-07-30T09:26:36.901Z,63.45
2022-07-30T09:28:15.670Z,63.22
2022-07-30T09:29:59.539Z,63.07
2022-07-30T09:32:57.221Z,63.82
2022-07-30T09:34:26.888Z,63.87
2022-07-30T09:35:44.212Z,63.33
2022-07-30T09:36:53.124Z,63.02
2022-07-30T09:38:06.779Z,63.07
2022-07-30T09:39:43.209Z,63.28
2022-07-30T09:41:39.244Z,63.49
2022-07-30T09:42:50.261Z,63.38
2022-07-30T09:43:57.761Z,63.28
2022-07-30T09:45:21.702Z,63.19
2022-07-30T09:46:51.645Z,62.93
2022-07-30T09:48:05.482Z,63.13
2022-07-30T09:49:19.474Z,62.99
2022-07-30T09:50:30.090Z,63.15
2022-07-30T09:51:54.413Z,63.07
2022-07-30T09:53:09.251Z,63.31
2022-07-30T09:54:18.746Z,63.70
2022-07-30T09:55:34.786Z,63.94
2022-07-30T09:56:41.989Z,64.09
2022-07-30T09:58:07.009Z,64.02
2022-07-30T09:59:35.043Z,64.09
2022-07-30T10:00:45.687Z,63.85
2022-07-30T10:02:12.304Z,63.66
2022-07-30T10:03:42.295Z,63.36
2022-07-30T10:05:26.177Z,63.52
2022-07-30T10:06:41.753Z,63.57
2022-07-30T10:08:19.246Z,63.64
2022-07-30T10:09:33.394Z,63.84
2022-07-30T10:10:47.111Z,63.90
2022-07-30T10:11:58.261Z,63.98
2022-07-30T10:13:09.468Z,63.97
2022-07-30T10:14:24.006Z,63.89
2022-07-30T10:15:39.833Z,63.92
2022-07-30T10:16:49.258Z,63.79
2022-07-30T10:17:56.688Z,64.03
2022-07-30T10:19:23.430Z,64.00
2022-07-30T10:21:05.541Z,63.97
2022-07-30T10:22:35.401Z,64.28
2022-07-30T10:24:04.657Z,64.42
2022-07-30T10:25:33.138Z,64.46
2022-07-30T10:26:53.589Z,64.46
2022-07-30T10:28:26.427Z,64.25
2022-07-30T10:29:36.937Z,64.52
2022-07-30T10:30:52.092Z,64.25
2022-07-30T10:32:00.264Z,64.04
2022-07-30T10:33:07.521Z,63.97
2022-07-30T10:34:16.105Z,63.99
2022-07-30T10:35:34.864Z,64.00
2022-07-30T10:36:59.661Z,64.06
2022-07-30T10:38:13.529Z,64.27
2022-07-30T10:39:26.598Z,64.53
2022-07-30T10:40:39.392Z,64.64
2022-07-30T10:42:13.651Z,64.70
2022-07-30T10:44:04.348Z,64.79
2022-07-30T10:45:23.786Z,64.85
2022-07-30T10:46:40.867Z,64.68
2022-07-30T10:47:49.487Z,64.60
2022-07-30T10:48:56.075Z,64.74
2022-07-30T10:50:15.680Z,64.67
2022-07-30T10:51:34.553Z,64.91
2022-07-30T10:52:55.985Z,65.01
2022-07-30T10:54:01.812Z,65.01
2022-07-30T10:55:13.604Z,64.90
2022-07-30T10:56:25.853Z,64.79
2022-07-30T10:57:41.568Z,64.82
2022-07-30T10:59:20.697Z,64.71
2022-07-30T11:00:28.107Z,64.59
2022-07-30T11:01:59.513Z,64.65
2022-07-30T11:03:20.370Z,64.82
2022-07-30T11:04:29.619Z,64.71
2022-07-30T11:05:45.087Z,64.83
2022-07-30T11:06:53.278Z,64.92
2022-07-30T11:08:19.979Z,65.03
2022-07-30T11:09:44.003Z,65.02
2022-07-30T11:10:57.306Z,64.81
2022-07-30T11:12:06.511Z,64.74
2022-07-30T11:13:14.487Z,64.57
2022-07-30T11:14:21.737Z,64.60
2022-07-30T11:16:02.843Z,64.57
2022-07-30T11:17:20.146Z,64.68
2022-07-30T11:18:28.608Z,64.88
2022-07-30T11:19:55.085Z,65.10
2022-07-30T11:21:21.401Z,65.33
2022-07-30T11:22:41.295Z,65.33
2022-07-30T11:23:47.937Z,65.28
2022-07-30T11:24:59.863Z,65.44
2022-07-30T11:26:14.277Z,65.34
2022-07-30T11:27:46.382Z,65.52
2022-07-30T11:28:55.473Z,65.62
2022-07-30T11:30:01.474Z,65.93
2022-07-30T11:31:55.865Z,65.87
2022-07-30T11:33:09.328Z,65.96
2022-07-30T11:34:33.326Z,66.27
2022-07-30T11:35:39.405Z,66.14
2022-07-30T11:37:32.244Z,66.26
2022-07-30T11:39:05.026Z,66.37
2022-07-30T11:40:17.121Z,66.16
2022-07-30T11:41:35.952Z,66.08
2022-07-30T11:42:42.290Z,66.06
2022-07-30T11:43:48.366Z,66.02
2022-07-30T11:44:55.089Z,65.90
2022-07-30T11:46:16.405Z,66.11
2022-07-30T11:47:23.811Z,66.18
2022-07-30T11:48:29.703Z,66.37
2022-07-30T11:49:38.765Z,66.36
2022-07-30T11:50:46.014Z,66.18
2022-07-30T11:51:52.200Z,66.20
2022-07-30T11:53:05.693Z,66.12
2022-07-30T11:54:13.265Z,66.05
2022-07-30T11:55:31.303Z,65.94
2022-07-30T11:56:37.995Z,65.90
2022-07-30T11:57:44.775Z,65.87
2022-07-30T11:58:51.803Z,66.31
2022-07-30T11:59:59.137Z,66.11
2022-07-30T12:01:09.259Z,66.10
2022-07-30T12:02:19.354Z,65.99
2022-07-30T12:03:32.428Z,66.03
2022-07-30T12:04:45.819Z,66.24
2022-07-30T12:05:53.472Z,65.87
2022-07-30T12:06:59.571Z,65.68
2022-07-30T12:08:08.587Z,65.79
2022-07-30T12:09:36.967Z,65.60
2022-07-30T12:10:43.639Z,65.59
2022-07-30T12:11:52.388Z,65.30
2022-07-30T12:13:18.656Z,65.08
2022-07-30T12:14:26.997Z,64.96
2022-07-30T12:15:34.636Z,64.79
2022-07-30T12:16:43.325Z,64.74
2022-07-30T12:17:56.905Z,64.63
2022-07-30T12:19:18.107Z,64.54
2022-07-30T12:20:25.766Z,64.61
2022-07-30T12:21:31.770Z,64.64
2022-07-30T12:22:37.615Z,64.73
2022-07-30T12:24:03.848Z,64.72
2022-07-30T12:25:10.661Z,64.72
2022-07-30T12:26:26.709Z,64.53
2022-07-30T12:27:36.227Z,64.51
2022-07-30T12:28:41.768Z,64.51
2022-07-30T12:29:50.493Z,64.41
2022-07-30T12:30:57.215Z,64.29
2022-07-30T12:32:04.159Z,64.47
2022-07-30T12:33:11.010Z,64.42
2022-07-30T12:34:24.860Z,64.40
2022-07-30T12:35:57.774Z,64.49
2022-07-30T12:37:11.504Z,64.59
2022-07-30T12:38:18.119Z,64.93
2022-07-30T12:39:27.676Z,64.80
2022-07-30T12:40:33.409Z,64.65
2022-07-30T12:41:56.627Z,64.60
2022-07-30T12:43:03.729Z,64.54
2022-07-30T12:44:09.760Z,64.33
2022-07-30T12:45:52.194Z,64.43
2022-07-30T12:47:03.448Z,64.60
2022-07-30T12:48:14.051Z,64.27
2022-07-30T12:49:23.062Z,64.26
2022-07-30T12:50:31.632Z,64.40
2022-07-30T12:51:38.974Z,64.52
2022-07-30T12:52:53.052Z,64.55
2022-07-30T12:53:59.105Z,64.57
2022-07-30T12:55:09.903Z,64.56
2022-07-30T12:56:21.032Z,64.45
2022-07-30T12:57:27.762Z,64.46
2022-07-30T12:58:39.165Z,64.48
2022-07-30T12:59:45.325Z,64.81
2022-07-30T13:00:55.427Z,64.94
2022-07-30T13:02:01.412Z,65.23
2022-07-30T13:03:22.261Z,65.36
2022-07-30T13:04:34.146Z,65.43
2022-07-30T13:05:51.535Z,65.57
2022-07-30T13:07:14.520Z,65.64
2022-07-30T13:08:22.947Z,65.68
2022-07-30T13:09:30.306Z,65.97
2022-07-30T13:10:36.038Z,66.04
2022-07-30T13:11:48.756Z,66.07
2022-07-30T13:12:58.778Z,66.26
2022-07-30T13:14:04.630Z,66.37
2022-07-30T13:15:11.086Z,66.33
2022-07-30T13:16:20.086Z,66.44
2022-07-30T13:17:26.038Z,66.34
2022-07-30T13:18:35.470Z,66.36
2022-07-30T13:19:42.748Z,66.36
2022-07-30T13:20:49.531Z,66.41
2022-07-30T13:21:58.681Z,66.57
2022-07-30T13:23:04.399Z,66.51
2022-07-30T13:24:17.884Z,66.20
2022-07-30T13:25:38.574Z,66.27
2022-07-30T13:26:47.994Z,65.95
2022-07-30T13:27:58.110Z,65.82
2022-07-30T13:29:06.479Z,65.53
2022-07-30T13:30:13.718Z,65.31
2022-07-30T13:31:20.994Z,64.93
2022-07-30T13:32:27.650Z,64.65
2022-07-30T13:33:35.860Z,64.37
2022-07-30T13:34:43.168Z,64.28
2022-07-30T13:35:52.604Z,64.34
2022-07-30T13:36:59.872Z,64.26
2022-07-30T13:38:07.742Z,63.96
2022-07-30T13:39:15.332Z,63.64
2022-07-30T13:40:22.476Z,63.35
2022-07-30T13:41:31.095Z,63.02
2022-07-30T13:42:41.860Z,62.56
2022-07-30T13:43:50.175Z,62.08
2022-07-30T13:44:57.452Z,61.67
2022-07-30T13:46:04.154Z,61.36
2022-07-30T13:47:11.227Z,61.14
2022-07-30T13:48:19.049Z,60.71
2022-07-30T13:49:26.843Z,60.45
2022-07-30T13:50:34.594Z,60.36
2022-07-30T13:51:41.118Z,60.48
2022-07-30T13:52:47.839Z,60.84
2022-07-30T13:53:54.953Z,61.15
2022-07-30T13:55:01.867Z,61.40
2022-07-30T13:56:12.358Z,61.53
2022-07-30T13:57:21.777Z,62.12
2022-07-30T13:58:36.051Z,62.53
2022-07-30T13:59:43.875Z,62.64
2022-07-30T14:00:51.270Z,63.02
2022-07-30T14:01:59.145Z,63.28
2022-07-30T14:03:07.011Z,63.54
2022-07-30T14:04:14.865Z,63.54
2022-07-30T14:05:22.733Z,63.38
2022-07-30T14:06:30.267Z,63.75
2022-07-30T14:07:37.836Z,63.46
2022-07-30T14:08:47.151Z,63.65
2022-07-30T14:09:54.706Z,63.66
2022-07-30T14:11:01.602Z,63.44
2022-07-30T14:12:10.759Z,63.17
2022-07-30T14:13:21.117Z,62.93
2022-07-30T14:14:31.596Z,62.67
2022-07-30T14:15:40.234Z,62.64
2022-07-30T14:16:53.724Z,62.35
2022-07-30T14:18:00.839Z,62.25
2022-07-30T14:19:07.660Z,61.11
2022-07-30T14:20:31.907Z,60.60
2022-07-30T14:21:39.558Z,60.43
2022-07-30T14:22:48.459Z,60.10
2022-07-30T14:23:54.415Z,59.73
2022-07-30T14:25:03.942Z,58.84
2022-07-30T14:26:09.989Z,57.99
2022-07-30T14:27:21.150Z,57.10
2022-07-30T14:28:27.647Z,56.31
2022-07-30T14:29:33.864Z,55.20
2022-07-30T14:30:40.051Z,53.95
2022-07-30T14:31:46.645Z,52.54
2022-07-30T14:32:59.237Z,51.65
2022-07-30T14:34:09.916Z,51.50
2022-07-30T14:35:15.890Z,50.16
2022-07-30T14:36:22.377Z,49.38
2022-07-30T14:37:31.996Z,49.13
2022-07-30T14:38:41.104Z,48.54
2022-07-30T14:39:49.927Z,48.66
2022-07-30T14:40:56.680Z,48.15
2022-07-30T14:42:07.759Z,46.73
2022-07-30T14:43:19.117Z,46.23
2022-07-30T14:44:27.885Z,44.96
2022-07-30T14:45:37.210Z,45.85
2022-07-30T14:47:01.888Z,45.15
2022-07-30T14:48:09.196Z,44.23
2022-07-30T14:49:17.422Z,43.55
2022-07-30T14:50:26.136Z,42.65
2022-07-30T14:51:34.576Z,42.53
2022-07-30T14:52:45.040Z,43.07
2022-07-30T14:53:52.783Z,42.71
2022-07-30T14:55:03.885Z,42.31
2022-07-30T14:56:14.692Z,42.41
2022-07-30T14:57:26.583Z,41.88
2022-07-30T14:58:36.557Z,41.34
2022-07-30T14:59:43.668Z,40.69
2022-07-30T15:00:53.245Z,40.73
2022-07-30T15:02:00.873Z,40.68
2022-07-30T15:03:08.117Z,40.59
2022-07-30T15:04:17.942Z,40.26
2022-07-30T15:05:27.052Z,40.11
2022-07-30T15:06:34.149Z,38.90
2022-07-30T15:07:40.871Z,38.89
2022-07-30T15:08:48.178Z,39.18
2022-07-30T15:09:55.168Z,39.15
2022-07-30T15:11:06.018Z,38.97
2022-07-30T15:12:21.743Z,38.44
2022-07-30T15:13:33.414Z,38.54
2022-07-30T15:14:47.715Z,38.42
2022-07-30T15:15:54.457Z,38.14
2022-07-30T15:17:04.172Z,37.84
2022-07-30T15:18:11.654Z,38.37
2022-07-30T15:19:19.331Z,38.40
2022-07-30T15:20:27.556Z,38.60
2022-07-30T15:21:35.214Z,38.67
2022-07-30T15:22:42.941Z,38.65
2022-07-30T15:23:50.672Z,38.55
2022-07-30T15:24:57.450Z,38.90
2022-07-30T15:26:05.108Z,38.65
2022-07-30T15:27:11.900Z,38.53
2022-07-30T15:28:21.241Z,38.02
2022-07-30T15:29:31.840Z,38.19
2022-07-30T15:30:40.494Z,37.86
2022-07-30T15:31:48.048Z,37.47
2022-07-30T15:32:55.165Z,36.62
2022-07-30T15:34:01.735Z,36.94
2022-07-30T15:35:13.654Z,36.42
2022-07-30T15:36:23.235Z,35.39
2022-07-30T15:37:32.835Z,34.84
2022-07-30T15:38:44.808Z,34.93